createdAt,value
2019-01-09T00:00:41.534Z,61.10
2019-01-09T00:01:41.442Z,61.38
2019-01-09T00:02:41.363Z,61.38
2019-01-09T00:03:41.310Z,61.19
2019-01-09T00:04:41.217Z,61.19
2019-01-09T00:05:41.154Z,61.00
2019-01-09T00:06:41.076Z,61.77
2019-01-09T00:07:41.014Z,61.77
2019-01-09T00:08:40.932Z,62.05
2019-01-09T00:09:40.846Z,62.15
2019-01-09T00:10:40.808Z,62.05
2019-01-09T00:11:40.698Z,62.34
2019-01-09T00:12:40.626Z,61.58
2019-01-09T00:13:40.545Z,61.10
2019-01-09T00:14:40.460Z,61.96
2019-01-09T00:15:40.395Z,62.15
2019-01-09T00:16:40.328Z,62.24
2019-01-09T00:17:40.255Z,61.86
2019-01-09T00:18:40.179Z,62.05
2019-01-09T00:19:40.103Z,62.24
2019-01-09T00:20:40.017Z,61.67
2019-01-09T00:21:39.945Z,62.43
2019-01-09T00:22:39.877Z,62.05
2019-01-09T00:23:39.802Z,62.34
2019-01-09T00:24:39.726Z,61.96
2019-01-09T00:25:39.654Z,61.10
2019-01-09T00:26:39.581Z,60.91
2019-01-09T00:27:39.502Z,61.00
2019-01-09T00:28:39.424Z,61.38
2019-01-09T00:29:39.337Z,61.96
2019-01-09T00:30:39.266Z,62.24
2019-01-09T00:31:39.206Z,61.86
2019-01-09T00:32:39.119Z,61.77
2019-01-09T00:33:39.048Z,61.67
2019-01-09T00:34:38.976Z,61.96
2019-01-09T00:35:38.908Z,61.86
2019-01-09T00:36:38.823Z,62.05
2019-01-09T00:37:38.741Z,61.10
2019-01-09T00:38:40.580Z,60.53
2019-01-09T00:39:38.598Z,61.38
2019-01-09T00:40:38.515Z,61.22
2019-01-09T00:41:38.459Z,61.70
2019-01-09T00:42:38.374Z,61.29
2019-01-09T00:43:38.287Z,60.91
2019-01-09T00:44:38.216Z,61.51
2019-01-09T00:45:38.162Z,61.77
2019-01-09T00:46:38.082Z,62.43
2019-01-09T00:47:38.006Z,61.99
2019-01-09T00:48:37.934Z,62.85
2019-01-09T00:49:37.845Z,62.56
2019-01-09T00:50:37.766Z,62.46
2019-01-09T00:51:37.718Z,61.67
2019-01-09T00:52:37.625Z,61.90
2019-01-09T00:53:37.558Z,62.24
2019-01-09T00:54:37.482Z,62.37
2019-01-09T00:55:37.415Z,61.70
2019-01-09T00:56:37.335Z,61.29
2019-01-09T00:57:37.275Z,60.82
2019-01-09T00:58:37.179Z,60.91
2019-01-09T00:59:37.106Z,61.19
2019-01-09T01:00:37.038Z,61.29
2019-01-09T01:01:36.955Z,61.29
2019-01-09T01:02:36.873Z,61.70
2019-01-09T01:03:36.824Z,62.18
2019-01-09T01:04:36.744Z,62.75
2019-01-09T01:05:36.665Z,62.65
2019-01-09T01:06:36.587Z,62.75
2019-01-09T01:07:36.518Z,62.75
2019-01-09T01:08:36.440Z,63.04
2019-01-09T01:09:36.462Z,63.51
2019-01-09T01:10:36.281Z,62.65
2019-01-09T01:11:36.230Z,62.65
2019-01-09T01:12:36.134Z,62.65
2019-01-09T01:13:36.076Z,63.04
2019-01-09T01:14:35.998Z,61.99
2019-01-09T01:15:35.928Z,61.99
2019-01-09T01:16:35.837Z,61.48
2019-01-09T01:17:35.775Z,61.99
2019-01-09T01:18:35.695Z,61.10
2019-01-09T01:19:35.742Z,61.04
2019-01-09T01:20:35.548Z,60.94
2019-01-09T01:21:35.466Z,61.00
2019-01-09T01:22:35.406Z,59.80
2019-01-09T01:23:35.330Z,60.37
2019-01-09T01:24:35.267Z,60.72
2019-01-09T01:25:35.191Z,60.56
2019-01-09T01:26:35.093Z,60.08
2019-01-09T01:27:35.023Z,60.27
2019-01-09T01:28:35.029Z,59.58
2019-01-09T01:29:34.894Z,58.72
2019-01-09T01:30:34.805Z,58.72
2019-01-09T01:31:34.722Z,59.03
2019-01-09T01:32:34.647Z,58.91
2019-01-09T01:33:34.585Z,59.48
2019-01-09T01:34:34.512Z,59.89
2019-01-09T01:35:34.433Z,60.08
2019-01-09T01:36:34.365Z,60.27
2019-01-09T01:37:34.343Z,60.08
2019-01-09T01:38:34.220Z,59.99
2019-01-09T01:39:34.137Z,60.18
2019-01-09T01:40:34.080Z,60.27
2019-01-09T01:41:33.991Z,60.37
2019-01-09T01:42:35.641Z,60.18
2019-01-09T01:43:33.847Z,60.75
2019-01-09T01:44:33.770Z,60.37
2019-01-09T01:45:33.683Z,60.75
2019-01-09T01:46:33.610Z,60.85
2019-01-09T01:47:33.548Z,60.46
2019-01-09T01:48:33.469Z,60.37
2019-01-09T01:49:33.385Z,60.18
2019-01-09T01:50:33.310Z,60.18
2019-01-09T01:51:33.233Z,59.51
2019-01-09T01:52:33.163Z,59.42
2019-01-09T01:53:33.100Z,58.53
2019-01-09T01:54:33.026Z,58.72
2019-01-09T01:55:32.941Z,57.87
2019-01-09T01:56:32.863Z,57.87
2019-01-09T01:57:32.813Z,56.92
2019-01-09T01:58:32.784Z,55.96
2019-01-09T01:59:32.655Z,54.53
2019-01-09T02:00:32.576Z,53.58
2019-01-09T02:01:32.507Z,53.39
2019-01-09T02:02:32.436Z,53.87
2019-01-09T02:03:32.438Z,53.20
2019-01-09T02:04:32.285Z,53.20
2019-01-09T02:05:32.210Z,53.11
2019-01-09T02:06:32.124Z,52.82
2019-01-09T02:07:32.050Z,52.72
2019-01-09T02:08:32.009Z,52.92
2019-01-09T02:09:31.908Z,52.72
2019-01-09T02:10:31.853Z,52.63
2019-01-09T02:11:31.757Z,52.44
2019-01-09T02:12:31.687Z,52.25
2019-01-09T02:13:31.618Z,53.01
2019-01-09T02:14:31.529Z,53.39
2019-01-09T02:15:31.449Z,53.67
2019-01-09T02:16:31.379Z,53.39
2019-01-09T02:17:31.315Z,52.92
2019-01-09T02:18:31.245Z,52.63
2019-01-09T02:19:31.216Z,51.58
2019-01-09T02:20:31.078Z,51.39
2019-01-09T02:21:31.023Z,51.58
2019-01-09T02:22:30.947Z,51.39
2019-01-09T02:23:31.143Z,52.92
2019-01-09T02:24:30.871Z,53.77
2019-01-09T02:25:30.712Z,54.25
2019-01-09T02:26:30.632Z,54.27
2019-01-09T02:27:30.570Z,54.06
2019-01-09T02:28:30.489Z,53.30
2019-01-09T02:29:30.405Z,52.92
2019-01-09T02:30:30.335Z,51.97
2019-01-09T02:31:30.260Z,51.39
2019-01-09T02:32:30.338Z,50.35
2019-01-09T02:33:30.126Z,49.20
2019-01-09T02:34:30.044Z,49.20
2019-01-09T02:35:29.992Z,49.96
2019-01-09T02:36:29.893Z,51.58
2019-01-09T02:37:29.826Z,52.34
2019-01-09T02:38:29.754Z,53.01
2019-01-09T02:39:29.677Z,53.01
2019-01-09T02:40:29.602Z,52.72
2019-01-09T02:41:29.513Z,53.42
2019-01-09T02:42:29.462Z,53.67
2019-01-09T02:43:29.383Z,53.20
2019-01-09T02:44:32.393Z,53.61
2019-01-09T02:45:29.231Z,53.58
2019-01-09T02:46:29.170Z,53.99
2019-01-09T02:47:29.085Z,53.30
2019-01-09T02:48:29.010Z,54.15
2019-01-09T02:49:28.936Z,53.99
2019-01-09T02:50:28.847Z,54.35
2019-01-09T02:51:28.782Z,54.47
2019-01-09T02:52:28.707Z,54.47
2019-01-09T02:53:28.623Z,54.37
2019-01-09T02:54:28.540Z,53.58
2019-01-09T02:55:28.467Z,53.49
2019-01-09T02:56:28.401Z,54.44
2019-01-09T02:57:28.340Z,53.87
2019-01-09T02:58:28.284Z,53.89
2019-01-09T02:59:28.183Z,53.52
2019-01-09T03:00:28.103Z,53.11
2019-01-09T03:01:28.052Z,52.92
2019-01-09T03:02:27.950Z,53.11
2019-01-09T03:03:27.877Z,52.34
2019-01-09T03:04:27.794Z,52.44
2019-01-09T03:05:27.743Z,52.25
2019-01-09T03:06:27.664Z,51.78
2019-01-09T03:07:27.581Z,52.82
2019-01-09T03:08:27.551Z,53.04
2019-01-09T03:09:27.438Z,53.11
2019-01-09T03:10:27.363Z,53.30
2019-01-09T03:11:27.341Z,52.25
2019-01-09T03:12:27.209Z,51.97
2019-01-09T03:13:27.129Z,51.58
2019-01-09T03:14:27.053Z,51.58
2019-01-09T03:15:26.982Z,51.97
2019-01-09T03:16:26.895Z,51.78
2019-01-09T03:17:26.842Z,52.15
2019-01-09T03:18:26.761Z,51.78
2019-01-09T03:19:26.684Z,51.49
2019-01-09T03:20:26.618Z,51.30
2019-01-09T03:21:26.548Z,51.68
2019-01-09T03:22:26.456Z,51.30
2019-01-09T03:23:26.387Z,51.10
2019-01-09T03:24:26.313Z,51.30
2019-01-09T03:25:26.223Z,51.39
2019-01-09T03:26:26.149Z,51.87
2019-01-09T03:27:26.096Z,51.87
2019-01-09T03:28:26.022Z,51.58
2019-01-09T03:29:25.937Z,50.54
2019-01-09T03:30:25.865Z,50.63
2019-01-09T03:31:25.781Z,49.87
2019-01-09T03:32:25.706Z,49.58
2019-01-09T03:33:25.641Z,49.11
2019-01-09T03:34:25.571Z,48.35
2019-01-09T03:35:25.488Z,48.25
2019-01-09T03:36:32.590Z,48.16
2019-01-09T03:37:25.327Z,48.63
2019-01-09T03:38:25.275Z,48.54
2019-01-09T03:39:25.251Z,47.78
2019-01-09T03:40:25.116Z,47.02
2019-01-09T03:41:25.032Z,47.20
2019-01-09T03:42:24.953Z,47.87
2019-01-09T03:43:24.881Z,47.49
2019-01-09T03:44:24.802Z,47.49
2019-01-09T03:45:24.738Z,47.87
2019-01-09T03:46:24.666Z,47.97
2019-01-09T03:47:24.598Z,47.30
2019-01-09T03:48:24.519Z,47.02
2019-01-09T03:49:24.465Z,46.35
2019-01-09T03:50:24.360Z,45.87
2019-01-09T03:51:24.290Z,45.87
2019-01-09T03:52:24.208Z,44.45
2019-01-09T03:53:24.135Z,44.82
2019-01-09T03:54:24.073Z,44.73
2019-01-09T03:55:23.977Z,44.73
2019-01-09T03:56:23.906Z,44.73
2019-01-09T03:57:23.839Z,43.97
2019-01-09T03:58:23.762Z,43.68
2019-01-09T03:59:23.688Z,43.49
2019-01-09T04:00:23.618Z,43.68
2019-01-09T04:01:23.541Z,44.64
2019-01-09T04:02:23.453Z,43.78
2019-01-09T04:03:24.434Z,43.30
2019-01-09T04:04:23.313Z,42.92
2019-01-09T04:05:23.244Z,42.25
2019-01-09T04:06:23.166Z,42.92
2019-01-09T04:07:23.088Z,43.02
2019-01-09T04:08:23.012Z,43.21
2019-01-09T04:09:22.936Z,43.02
2019-01-09T04:10:22.855Z,42.92
2019-01-09T04:11:22.793Z,43.21
2019-01-09T04:12:22.809Z,43.78
2019-01-09T04:13:22.633Z,44.66
2019-01-09T04:14:22.559Z,44.64
2019-01-09T04:15:22.481Z,44.64
2019-01-09T04:16:22.408Z,44.92
2019-01-09T04:17:22.341Z,44.75
2019-01-09T04:18:22.266Z,44.82
2019-01-09T04:19:22.198Z,43.87
2019-01-09T04:20:22.117Z,42.92
2019-01-09T04:21:22.033Z,42.64
2019-01-09T04:22:21.958Z,42.25
2019-01-09T04:23:21.881Z,41.69
2019-01-09T04:24:21.829Z,41.30
2019-01-09T04:25:21.751Z,41.02
2019-01-09T04:26:21.672Z,40.16
2019-01-09T04:27:21.583Z,39.40
2019-01-09T04:28:21.597Z,39.02
2019-01-09T04:29:21.440Z,39.12
2019-01-09T04:30:21.364Z,39.12
2019-01-09T04:31:21.293Z,39.02
2019-01-09T04:32:21.221Z,37.78
2019-01-09T04:33:21.135Z,36.55
2019-01-09T04:34:21.058Z,36.64
2019-01-09T04:35:21.012Z,36.55
2019-01-09T04:36:20.916Z,36.45
2019-01-09T04:37:20.834Z,36.55
2019-01-09T04:38:20.770Z,36.93
2019-01-09T04:39:20.683Z,37.80
2019-01-09T04:40:20.603Z,38.73
2019-01-09T04:41:20.542Z,38.47
2019-01-09T04:42:20.474Z,38.17
2019-01-09T04:43:20.389Z,37.49
2019-01-09T04:44:20.309Z,37.59
2019-01-09T04:45:20.245Z,37.78
2019-01-09T04:46:20.166Z,38.28
2019-01-09T04:47:20.096Z,38.07
2019-01-09T04:48:20.020Z,37.80
2019-01-09T04:49:19.928Z,36.83
2019-01-09T04:50:19.855Z,36.55
2019-01-09T04:51:19.781Z,36.35
2019-01-09T04:52:19.704Z,36.55
2019-01-09T04:53:19.647Z,37.30
2019-01-09T04:54:19.574Z,37.61
2019-01-09T04:55:19.496Z,37.49
2019-01-09T04:56:19.420Z,38.09
2019-01-09T04:57:19.353Z,39.04
2019-01-09T04:58:19.283Z,38.47
2019-01-09T04:59:19.196Z,38.35
2019-01-09T05:00:19.125Z,37.78
2019-01-09T05:01:19.039Z,37.69
2019-01-09T05:02:18.963Z,37.78
2019-01-09T05:03:18.904Z,38.09
2019-01-09T05:04:18.824Z,37.40
2019-01-09T05:05:18.754Z,37.59
2019-01-09T05:06:18.669Z,36.74
2019-01-09T05:07:18.643Z,36.37
2019-01-09T05:08:18.528Z,36.83
2019-01-09T05:09:18.459Z,36.45
2019-01-09T05:10:18.366Z,36.76
2019-01-09T05:11:18.291Z,37.32
2019-01-09T05:12:18.237Z,38.09
2019-01-09T05:13:18.167Z,38.47
2019-01-09T05:14:18.079Z,38.07
2019-01-09T05:15:17.988Z,37.52
2019-01-09T05:16:17.959Z,37.59
2019-01-09T05:17:17.856Z,38.18
2019-01-09T05:18:17.783Z,39.23
2019-01-09T05:19:17.725Z,40.28
2019-01-09T05:20:17.629Z,40.28
2019-01-09T05:21:17.554Z,40.56
2019-01-09T05:22:17.470Z,40.94
2019-01-09T05:23:17.402Z,41.33
2019-01-09T05:24:17.339Z,42.18
2019-01-09T05:25:17.257Z,43.04
2019-01-09T05:26:17.181Z,43.51
2019-01-09T05:27:17.110Z,43.71
2019-01-09T05:28:17.035Z,44.56
2019-01-09T05:29:16.948Z,44.09
2019-01-09T05:30:16.873Z,44.85
2019-01-09T05:31:16.813Z,43.42
2019-01-09T05:32:16.747Z,43.04
2019-01-09T05:33:16.674Z,42.76
2019-01-09T05:34:16.601Z,41.71
2019-01-09T05:35:16.505Z,41.42
2019-01-09T05:36:16.433Z,40.92
2019-01-09T05:37:16.370Z,41.61
2019-01-09T05:38:16.313Z,42.37
2019-01-09T05:39:16.205Z,42.56
2019-01-09T05:40:16.139Z,41.99
2019-01-09T05:41:16.074Z,42.37
2019-01-09T05:42:16.032Z,42.37
2019-01-09T05:43:15.996Z,42.16
2019-01-09T05:44:15.842Z,41.71
2019-01-09T05:45:15.763Z,41.80
2019-01-09T05:46:15.683Z,42.37
2019-01-09T05:47:15.622Z,43.13
2019-01-09T05:48:15.554Z,43.61
2019-01-09T05:49:15.460Z,44.09
2019-01-09T05:50:15.387Z,44.85
2019-01-09T05:51:15.430Z,44.56
2019-01-09T05:52:15.244Z,43.99
2019-01-09T05:53:15.172Z,44.75
2019-01-09T05:54:15.101Z,44.75
2019-01-09T05:55:15.024Z,44.56
2019-01-09T05:56:14.951Z,45.51
2019-01-09T05:57:14.883Z,45.32
2019-01-09T05:58:14.790Z,45.99
2019-01-09T05:59:14.734Z,45.99
2019-01-09T06:00:14.656Z,46.94
2019-01-09T06:01:14.575Z,46.66
2019-01-09T06:02:14.506Z,46.66
2019-01-09T06:03:14.426Z,47.04
2019-01-09T06:04:14.353Z,46.75
2019-01-09T06:05:14.279Z,47.61
2019-01-09T06:06:14.220Z,48.08
2019-01-09T06:07:18.482Z,47.99
2019-01-09T06:08:14.060Z,49.04
2019-01-09T06:09:13.973Z,49.13
2019-01-09T06:10:13.900Z,49.23
2019-01-09T06:11:13.837Z,49.42
2019-01-09T06:12:13.770Z,50.09
2019-01-09T06:13:13.672Z,50.75
2019-01-09T06:14:13.603Z,51.42
2019-01-09T06:15:13.543Z,51.80
2019-01-09T06:16:13.518Z,52.75
2019-01-09T06:17:13.392Z,53.13
2019-01-09T06:18:13.305Z,53.80
2019-01-09T06:19:13.233Z,53.80
2019-01-09T06:20:13.176Z,53.80
2019-01-09T06:21:13.098Z,53.61
2019-01-09T06:22:13.023Z,53.99
2019-01-09T06:23:12.953Z,54.37
2019-01-09T06:24:12.866Z,54.75
2019-01-09T06:25:12.806Z,54.85
2019-01-09T06:26:12.719Z,55.32
2019-01-09T06:27:12.650Z,55.04
2019-01-09T06:28:12.590Z,55.32
2019-01-09T06:29:12.507Z,55.04
2019-01-09T06:30:12.436Z,54.94
2019-01-09T06:31:12.356Z,55.04
2019-01-09T06:32:12.283Z,55.51
2019-01-09T06:33:12.200Z,55.90
2019-01-09T06:34:12.139Z,55.61
2019-01-09T06:35:12.060Z,56.09
2019-01-09T06:36:11.979Z,55.80
2019-01-09T06:37:11.906Z,55.90
2019-01-09T06:38:11.834Z,55.80
2019-01-09T06:39:11.779Z,55.70
2019-01-09T06:40:11.696Z,55.61
2019-01-09T06:41:11.669Z,55.42
2019-01-09T06:42:11.541Z,56.18
2019-01-09T06:43:11.472Z,56.27
2019-01-09T06:44:11.402Z,55.80
2019-01-09T06:45:11.323Z,55.99
2019-01-09T06:46:11.284Z,56.56
2019-01-09T06:47:11.176Z,56.27
2019-01-09T06:48:11.110Z,56.65
2019-01-09T06:49:11.018Z,56.46
2019-01-09T06:50:10.965Z,57.04
2019-01-09T06:51:10.889Z,57.04
2019-01-09T06:52:10.817Z,57.70
2019-01-09T06:53:10.751Z,57.89
2019-01-09T06:54:10.739Z,58.28
2019-01-09T06:55:10.616Z,58.37
2019-01-09T06:56:10.539Z,58.75
2019-01-09T06:57:10.437Z,58.37
2019-01-09T06:58:10.372Z,59.03
2019-01-09T06:59:10.296Z,59.42
2019-01-09T07:00:10.212Z,59.99
2019-01-09T07:01:10.144Z,59.89
2019-01-09T07:02:10.070Z,60.02
2019-01-09T07:03:10.003Z,59.80
2019-01-09T07:04:09.924Z,59.80
2019-01-09T07:05:09.853Z,59.80
2019-01-09T07:06:09.783Z,60.27
2019-01-09T07:07:09.701Z,60.56
2019-01-09T07:08:09.631Z,60.46
2019-01-09T07:09:09.563Z,60.11
2019-01-09T07:10:09.482Z,60.78
2019-01-09T07:11:09.417Z,60.78
2019-01-09T07:12:09.351Z,60.56
2019-01-09T07:13:09.264Z,60.27
2019-01-09T07:14:09.188Z,60.18
2019-01-09T07:15:12.477Z,59.80
2019-01-09T07:16:09.042Z,59.99
2019-01-09T07:17:08.968Z,59.61
2019-01-09T07:18:08.893Z,58.56
2019-01-09T07:19:08.841Z,58.08
2019-01-09T07:20:08.740Z,57.89
2019-01-09T07:21:08.691Z,57.70
2019-01-09T07:22:08.596Z,57.60
2019-01-09T07:23:08.524Z,57.80
2019-01-09T07:24:08.460Z,56.56
2019-01-09T07:25:08.366Z,56.27
2019-01-09T07:26:08.298Z,55.80
2019-01-09T07:27:08.238Z,55.99
2019-01-09T07:28:08.160Z,55.99
2019-01-09T07:29:08.079Z,55.99
2019-01-09T07:30:08.022Z,55.42
2019-01-09T07:31:07.934Z,55.61
2019-01-09T07:32:07.844Z,54.18
2019-01-09T07:33:07.774Z,55.51
2019-01-09T07:34:07.701Z,55.90
2019-01-09T07:35:07.630Z,55.61
2019-01-09T07:36:07.562Z,55.42
2019-01-09T07:37:07.488Z,55.42
2019-01-09T07:38:07.423Z,54.27
2019-01-09T07:39:07.341Z,53.70
2019-01-09T07:40:07.267Z,53.13
2019-01-09T07:41:07.190Z,52.75
2019-01-09T07:42:07.122Z,51.89
2019-01-09T07:43:07.044Z,51.61
2019-01-09T07:44:06.979Z,50.37
2019-01-09T07:45:06.884Z,49.51
2019-01-09T07:46:06.828Z,48.75
2019-01-09T07:47:06.751Z,47.89
2019-01-09T07:48:06.685Z,45.51
2019-01-09T07:49:06.609Z,44.27
2019-01-09T07:50:06.519Z,44.09
2019-01-09T07:51:06.444Z,43.80
2019-01-09T07:52:06.383Z,44.66
2019-01-09T07:53:06.316Z,44.75
2019-01-09T07:54:06.228Z,44.75
2019-01-09T07:55:06.187Z,44.75
2019-01-09T07:56:06.087Z,45.42
2019-01-09T07:57:06.010Z,44.75
2019-01-09T07:58:05.955Z,44.66
2019-01-09T07:59:05.859Z,45.32
2019-01-09T08:00:05.800Z,46.18
2019-01-09T08:01:05.708Z,46.66
2019-01-09T08:02:05.628Z,46.75
2019-01-09T08:03:05.567Z,47.16
2019-01-09T08:04:05.490Z,46.84
2019-01-09T08:05:05.419Z,46.97
2019-01-09T08:06:05.348Z,47.82
2019-01-09T08:07:05.275Z,47.92
2019-01-09T08:08:05.211Z,47.73
2019-01-09T08:09:05.118Z,47.92
2019-01-09T08:10:05.047Z,48.39
2019-01-09T08:11:06.612Z,48.87
2019-01-09T08:12:04.913Z,48.94
2019-01-09T08:13:04.816Z,48.87
2019-01-09T08:14:04.747Z,49.73
2019-01-09T08:15:04.672Z,50.11
2019-01-09T08:16:04.610Z,50.87
2019-01-09T08:17:04.532Z,51.73
2019-01-09T08:18:04.465Z,52.20
2019-01-09T08:19:04.399Z,52.78
2019-01-09T08:20:04.306Z,52.68
2019-01-09T08:21:05.431Z,54.02
2019-01-09T08:22:04.161Z,54.88
2019-01-09T08:23:04.089Z,54.68
2019-01-09T08:24:04.021Z,55.54
2019-01-09T08:25:03.954Z,55.63
2019-01-09T08:26:03.883Z,55.44
2019-01-09T08:27:03.802Z,56.02
2019-01-09T08:28:03.733Z,57.07
2019-01-09T08:29:03.662Z,56.78
2019-01-09T08:30:03.579Z,56.59
2019-01-09T08:31:03.515Z,56.68
2019-01-09T08:32:03.430Z,57.64
2019-01-09T08:33:03.354Z,58.11
2019-01-09T08:34:03.279Z,58.52
2019-01-09T08:35:03.206Z,59.28
2019-01-09T08:36:03.150Z,59.95
2019-01-09T08:37:03.075Z,60.43
2019-01-09T08:38:03.330Z,61.19
2019-01-09T08:39:02.935Z,62.24
2019-01-09T08:40:02.864Z,62.05
2019-01-09T08:41:02.770Z,63.00
2019-01-09T08:42:02.705Z,63.20
2019-01-09T08:43:02.635Z,64.34
2019-01-09T08:44:02.548Z,65.10
2019-01-09T08:45:02.586Z,64.81
2019-01-09T08:46:02.411Z,64.81
2019-01-09T08:47:02.357Z,65.96
2019-01-09T08:48:02.275Z,66.53
2019-01-09T08:49:02.200Z,66.53
2019-01-09T08:50:02.117Z,66.72
2019-01-09T08:51:02.040Z,67.33
2019-01-09T08:52:01.985Z,67.86
2019-01-09T08:53:01.909Z,68.05
2019-01-09T08:54:01.836Z,68.15
2019-01-09T08:55:01.761Z,68.05
2019-01-09T08:56:01.680Z,68.34
2019-01-09T08:57:01.608Z,68.82
2019-01-09T08:58:01.543Z,69.43
2019-01-09T08:59:01.480Z,69.23
2019-01-09T09:00:01.461Z,69.87
2019-01-09T09:01:01.318Z,69.71
2019-01-09T09:02:01.250Z,69.90
2019-01-09T09:03:01.174Z,70.47
2019-01-09T09:04:01.113Z,71.14
2019-01-09T09:05:01.038Z,70.92
2019-01-09T09:06:00.968Z,71.01
2019-01-09T09:07:00.898Z,71.30
2019-01-09T09:08:00.838Z,71.68
2019-01-09T09:09:00.744Z,71.77
2019-01-09T09:10:00.668Z,71.77
2019-01-09T09:11:00.599Z,71.87
2019-01-09T09:12:00.573Z,72.06
2019-01-09T09:13:00.458Z,71.87
2019-01-09T09:14:00.380Z,71.68
2019-01-09T09:15:00.310Z,72.67
2019-01-09T09:16:00.245Z,72.76
2019-01-09T09:17:00.179Z,72.57
2019-01-09T09:18:00.100Z,72.76
2019-01-09T09:19:00.038Z,72.76
2019-01-09T09:19:59.949Z,72.96
2019-01-09T09:20:59.876Z,72.86
2019-01-09T09:21:59.798Z,72.86
2019-01-09T09:22:59.727Z,72.76
2019-01-09T09:23:59.669Z,73.33
2019-01-09T09:24:59.597Z,73.33
2019-01-09T09:25:59.525Z,73.33
2019-01-09T09:26:59.531Z,73.33
2019-01-09T09:27:59.383Z,73.05
2019-01-09T09:28:59.290Z,73.43
2019-01-09T09:29:59.237Z,73.43
2019-01-09T09:30:59.166Z,73.33
2019-01-09T09:31:59.092Z,73.24
2019-01-09T09:32:59.012Z,73.43
2019-01-09T09:33:58.937Z,73.33
2019-01-09T09:34:58.864Z,73.24
2019-01-09T09:35:58.804Z,73.18
2019-01-09T09:36:58.727Z,73.81
2019-01-09T09:37:58.654Z,73.24
2019-01-09T09:38:58.584Z,73.85
2019-01-09T09:39:58.523Z,74.04
2019-01-09T09:40:58.427Z,73.91
2019-01-09T09:41:58.365Z,74.01
2019-01-09T09:42:58.288Z,74.10
2019-01-09T09:43:58.232Z,74.10
2019-01-09T09:44:58.155Z,74.01
2019-01-09T09:45:58.073Z,74.57
2019-01-09T09:46:58.003Z,74.29
2019-01-09T09:47:57.939Z,74.04
2019-01-09T09:48:57.868Z,73.75
2019-01-09T09:49:57.799Z,73.75
2019-01-09T09:50:57.722Z,74.23
2019-01-09T09:51:57.640Z,74.23
2019-01-09T09:52:57.611Z,73.85
2019-01-09T09:53:57.515Z,74.13
2019-01-09T09:54:57.478Z,74.52
2019-01-09T09:55:57.368Z,74.23
2019-01-09T09:56:57.286Z,74.13
2019-01-09T09:58:05.305Z,73.94
2019-01-09T09:58:57.159Z,74.04
2019-01-09T09:59:57.080Z,74.42
2019-01-09T10:00:57.009Z,74.71
2019-01-09T10:01:56.945Z,74.42
2019-01-09T10:02:56.871Z,74.42
2019-01-09T10:03:56.794Z,74.71
2019-01-09T10:04:56.724Z,74.42
2019-01-09T10:05:56.645Z,74.61
2019-01-09T10:06:56.577Z,74.61
2019-01-09T10:07:56.498Z,74.42
2019-01-09T10:08:56.430Z,74.99
2019-01-09T10:09:56.362Z,74.84
2019-01-09T10:10:56.276Z,74.46
2019-01-09T10:11:56.227Z,74.93
2019-01-09T10:12:56.146Z,74.65
2019-01-09T10:13:56.079Z,74.55
2019-01-09T10:14:56.013Z,74.46
2019-01-09T10:15:55.928Z,75.22
2019-01-09T10:16:55.854Z,75.03
2019-01-09T10:17:55.787Z,75.03
2019-01-09T10:18:55.715Z,75.03
2019-01-09T10:19:55.665Z,74.65
2019-01-09T10:20:55.580Z,75.32
2019-01-09T10:21:55.494Z,75.51
2019-01-09T10:22:55.425Z,75.22
2019-01-09T10:23:55.364Z,74.84
2019-01-09T10:24:55.303Z,75.13
2019-01-09T10:25:55.208Z,75.32
2019-01-09T10:26:55.136Z,75.32
2019-01-09T10:27:55.073Z,75.42
2019-01-09T10:28:55.005Z,75.51
2019-01-09T10:29:54.932Z,75.51
2019-01-09T10:30:54.858Z,75.70
2019-01-09T10:31:54.788Z,75.98
2019-01-09T10:32:54.759Z,75.32
2019-01-09T10:33:54.650Z,75.51
2019-01-09T10:34:54.578Z,75.79
2019-01-09T10:35:54.500Z,76.08
2019-01-09T10:36:54.421Z,76.08
2019-01-09T10:37:54.353Z,76.27
2019-01-09T10:38:54.301Z,76.56
2019-01-09T10:39:54.220Z,76.18
2019-01-09T10:40:54.165Z,76.08
2019-01-09T10:41:54.072Z,76.65
2019-01-09T10:42:54.022Z,76.65
2019-01-09T10:43:53.916Z,75.98
2019-01-09T10:44:53.851Z,76.18
2019-01-09T10:45:53.778Z,75.98
2019-01-09T10:46:53.707Z,76.08
2019-01-09T10:47:53.644Z,76.75
2019-01-09T10:48:53.575Z,75.98
2019-01-09T10:49:53.507Z,76.37
2019-01-09T10:50:53.434Z,76.65
2019-01-09T10:51:53.360Z,76.75
2019-01-09T10:52:53.283Z,76.08
2019-01-09T10:53:53.211Z,76.27
2019-01-09T10:54:53.143Z,76.46
2019-01-09T10:55:53.055Z,75.89
2019-01-09T10:56:52.990Z,76.46
2019-01-09T10:57:52.933Z,76.46
2019-01-09T10:58:52.855Z,76.94
2019-01-09T10:59:52.770Z,76.84
2019-01-09T11:00:52.718Z,76.94
2019-01-09T11:01:52.638Z,76.37
2019-01-09T11:02:52.564Z,76.75
2019-01-09T11:03:52.497Z,76.65
2019-01-09T11:04:52.424Z,76.75
2019-01-09T11:05:52.342Z,76.37
2019-01-09T11:06:52.271Z,76.84
2019-01-09T11:07:52.213Z,77.03
2019-01-09T11:08:52.138Z,77.13
2019-01-09T11:09:52.065Z,76.84
2019-01-09T11:10:51.993Z,76.84
2019-01-09T11:11:51.911Z,77.03
2019-01-09T11:12:51.855Z,77.13
2019-01-09T11:13:51.771Z,77.03
2019-01-09T11:14:51.702Z,77.23
2019-01-09T11:15:51.635Z,77.23
2019-01-09T11:16:51.562Z,76.94
2019-01-09T11:17:51.498Z,77.17
2019-01-09T11:18:51.444Z,76.94
2019-01-09T11:19:51.359Z,77.13
2019-01-09T11:20:51.267Z,76.84
2019-01-09T11:21:51.207Z,76.94
2019-01-09T11:22:51.135Z,77.13
2019-01-09T11:23:51.055Z,77.03
2019-01-09T11:24:50.980Z,77.08
2019-01-09T11:25:50.909Z,77.36
2019-01-09T11:26:50.841Z,77.08
2019-01-09T11:27:50.851Z,77.17
2019-01-09T11:28:50.706Z,77.08
2019-01-09T11:29:50.637Z,76.98
2019-01-09T11:30:50.574Z,76.79
2019-01-09T11:31:50.484Z,76.65
2019-01-09T11:32:50.410Z,76.75
2019-01-09T11:33:50.338Z,77.23
2019-01-09T11:34:50.267Z,77.03
2019-01-09T11:35:50.226Z,77.23
2019-01-09T11:36:50.133Z,77.70
2019-01-09T11:37:50.050Z,78.28
2019-01-09T11:38:55.618Z,77.99
2019-01-09T11:39:49.919Z,78.13
2019-01-09T11:40:49.893Z,77.80
2019-01-09T11:41:49.787Z,77.42
2019-01-09T11:42:49.703Z,77.55
2019-01-09T11:43:49.623Z,77.65
2019-01-09T11:44:49.565Z,77.26
2019-01-09T11:45:49.484Z,77.26
2019-01-09T11:46:49.425Z,77.26
2019-01-09T11:47:49.344Z,77.26
2019-01-09T11:48:49.292Z,77.08
2019-01-09T11:49:49.197Z,77.17
2019-01-09T11:50:49.132Z,77.26
2019-01-09T11:51:49.047Z,77.36
2019-01-09T11:52:48.977Z,77.23
2019-01-09T11:53:48.911Z,77.36
2019-01-09T11:54:48.846Z,77.45
2019-01-09T11:55:48.762Z,77.84
2019-01-09T11:56:48.690Z,77.70
2019-01-09T11:57:48.617Z,77.65
2019-01-09T11:58:48.565Z,77.84
2019-01-09T11:59:48.482Z,78.13
2019-01-09T12:00:48.446Z,78.03
2019-01-09T12:01:48.348Z,77.84
2019-01-09T12:02:48.276Z,77.65
2019-01-09T12:03:48.243Z,77.65
2019-01-09T12:04:48.123Z,77.74
2019-01-09T12:05:48.061Z,76.84
2019-01-09T12:06:48.002Z,77.03
2019-01-09T12:07:47.903Z,77.08
2019-01-09T12:08:49.384Z,76.88
2019-01-09T12:09:47.779Z,77.45
2019-01-09T12:10:47.723Z,77.08
2019-01-09T12:11:47.619Z,77.36
2019-01-09T12:12:47.580Z,77.36
2019-01-09T12:13:47.473Z,77.26
2019-01-09T12:14:47.399Z,77.08
2019-01-09T12:15:47.341Z,77.08
2019-01-09T12:16:47.270Z,77.84
2019-01-09T12:17:47.197Z,77.45
2019-01-09T12:18:47.126Z,77.45
2019-01-09T12:19:47.056Z,77.55
2019-01-09T12:20:46.967Z,77.65
2019-01-09T12:21:46.893Z,77.26
2019-01-09T12:22:46.830Z,77.08
2019-01-09T12:23:46.765Z,77.36
2019-01-09T12:24:46.694Z,77.08
2019-01-09T12:25:46.609Z,77.08
2019-01-09T12:26:46.539Z,76.98
2019-01-09T12:27:46.477Z,77.17
2019-01-09T12:28:53.464Z,77.26
2019-01-09T12:29:46.335Z,77.36
2019-01-09T12:30:46.265Z,77.26
2019-01-09T12:31:46.204Z,77.36
2019-01-09T12:32:46.110Z,77.45
2019-01-09T12:33:46.036Z,77.08
2019-01-09T12:34:45.966Z,76.79
2019-01-09T12:35:45.910Z,76.31
2019-01-09T12:36:45.834Z,75.45
2019-01-09T12:37:45.774Z,75.83
2019-01-09T12:38:45.698Z,75.45
2019-01-09T12:39:45.622Z,75.26
2019-01-09T12:40:45.536Z,74.78
2019-01-09T12:41:45.470Z,74.88
2019-01-09T12:42:45.397Z,75.35
2019-01-09T12:43:45.329Z,75.16
2019-01-09T12:44:45.242Z,74.88
2019-01-09T12:45:45.195Z,75.26
2019-01-09T12:46:45.109Z,75.74
2019-01-09T12:47:45.060Z,75.64
2019-01-09T12:48:44.974Z,75.54
2019-01-09T12:49:44.898Z,75.45
2019-01-09T12:50:44.837Z,75.64
2019-01-09T12:51:44.743Z,75.45